Time;durP1;ratioP1;P1;durP2;ratioP2;P2;SDS_P1;SDS_P2;PMS_P1;PMS_P2;Temp;Humidity;BMP_temperature;BMP_pressure;BME280_temperature;BME280_humidity;BME280_pressure;Samples;Min_cycle;Max_cycle;Signal;HPM_P1;HPM_P2
2023/04/02 02:02:13;;;;;;;7.95;4.05;;;;;;;;;;4329098;28;20088;-71
2023/04/02 02:04:41;;;;;;;5.20;4.03;;;;;;;;;;4238099;33;20047;-70
2023/04/02 02:07:13;;;;;;;4.62;3.87;;;;;;;;;;4223060;33;20073;-71
2023/04/02 02:09:40;;;;;;;5.18;3.55;;;;;;;;;;4221826;34;20078;-70
2023/04/02 02:12:09;;;;;;;5.72;3.62;;;;;;;;;;4221852;34;20056;-69
2023/04/02 02:14:35;;;;;;;7.40;4.28;;;;;;;;;;4200489;34;20073;-70
2023/04/02 02:17:02;;;;;;;8.80;5.45;;;;;;;;;;4192012;34;20051;-72
2023/04/02 02:19:37;;;;;;;5.87;4.40;;;;;;;;;;4193840;34;20048;-70
2023/04/02 02:22:06;;;;;;;6.25;4.40;;;;;;;;;;4193561;34;20458;-70
2023/04/02 02:24:34;;;;;;;7.00;4.12;;;;;;;;;;4193825;34;20535;-71
2023/04/02 02:27:00;;;;;;;5.78;3.72;;;;;;;;;;4199494;34;20481;-72
2023/04/02 02:29:27;;;;;;;5.60;4.25;;;;;;;;;;4205919;34;20047;-70
2023/04/02 02:31:54;;;;;;;7.10;5.05;;;;;;;;;;4165865;34;20083;-70
2023/04/02 02:34:23;;;;;;;6.85;4.22;;;;;;;;;;4166442;34;20065;-69
2023/04/02 02:36:55;;;;;;;5.40;3.47;;;;;;;;;;4138841;34;20412;-69
2023/04/02 02:39:40;;;;;;;10.32;4.50;;;;;;;;;;4136235;34;20037;-69
2023/04/02 02:42:12;;;;;;;6.78;4.68;;;;;;;;;;4138718;34;20483;-69
2023/04/02 02:44:42;;;;;;;3.90;3.20;;;;;;;;;;4125271;34;20058;-70
2023/04/02 02:47:18;;;;;;;6.00;3.80;;;;;;;;;;4123403;34;20479;-69
2023/04/02 02:49:48;;;;;;;2.75;2.55;;;;;;;;;;4131225;34;20052;-69
2023/04/02 02:52:18;;;;;;;4.63;3.70;;;;;;;;;;4124847;34;20067;-69
2023/04/02 02:54:48;;;;;;;4.57;3.20;;;;;;;;;;4124564;34;20228;-70
2023/04/02 02:57:18;;;;;;;7.50;3.97;;;;;;;;;;4125779;34;20077;-70
2023/04/02 02:59:47;;;;;;;;;;;;;;;;;;4125809;34;20061;-70
2023/04/02 03:02:13;;;;;;;3.20;1.92;;;;;;;;;;4124946;34;20308;-71
2023/04/02 03:04:40;;;;;;;6.25;3.62;;;;;;;;;;4123841;34;20091;-70
2023/04/02 03:07:08;;;;;;;5.72;3.50;;;;;;;;;;4127734;34;20056;-70
2023/04/02 03:09:57;;;;;;;6.18;3.85;;;;;;;;;;4166980;34;20074;-70
2023/04/02 03:12:45;;;;;;;4.97;3.90;;;;;;;;;;4163916;34;20044;-70
2023/04/02 03:15:18;;;;;;;5.25;3.95;;;;;;;;;;4196913;34;20059;-70
2023/04/02 03:17:46;;;;;;;4.47;3.42;;;;;;;;;;4205334;34;20065;-72
2023/04/02 03:20:16;;;;;;;3.62;3.30;;;;;;;;;;4192571;34;20078;-70
2023/04/02 03:22:54;;;;;;;2.17;1.98;;;;;;;;;;4193655;34;20044;-70
2023/04/02 03:25:20;;;;;;;4.65;3.20;;;;;;;;;;4206268;34;20114;-72
2023/04/02 03:27:48;;;;;;;3.37;3.08;;;;;;;;;;4205976;34;20057;-70
2023/04/02 03:30:26;;;;;;;2.53;2.28;;;;;;;;;;4207173;34;20054;-70
2023/04/02 03:33:02;;;;;;;2.62;2.40;;;;;;;;;;4207267;34;20076;-71
2023/04/02 03:35:43;;;;;;;3.33;2.10;;;;;;;;;;4205786;34;20090;-70
2023/04/02 03:38:19;;;;;;;2.43;2.23;;;;;;;;;;4206414;34;20042;-70
2023/04/02 03:40:57;;;;;;;5.35;3.50;;;;;;;;;;4195729;34;20100;-72
2023/04/02 03:43:25;;;;;;;3.22;3.03;;;;;;;;;;4207183;34;20047;-69
2023/04/02 03:45:56;;;;;;;4.50;3.55;;;;;;;;;;4207005;34;20525;-69
2023/04/02 03:48:33;;;;;;;3.78;3.37;;;;;;;;;;4206405;34;20051;-69
2023/04/02 03:51:19;;;;;;;4.00;3.50;;;;;;;;;;4186993;34;20107;-69
2023/04/02 03:53:46;;;;;;;4.90;2.58;;;;;;;;;;4158857;34;20058;-69
2023/04/02 03:56:38;;;;;;;9.60;3.28;;;;;;;;;;4193705;34;20066;-69
2023/04/02 03:59:13;;;;;;;1.90;1.80;;;;;;;;;;4194598;34;20047;-69
2023/04/02 04:01:47;;;;;;;4.10;3.20;;;;;;;;;;4204489;34;20043;-68
2023/04/02 04:04:16;;;;;;;1.85;1.75;;;;;;;;;;4209620;34;20367;-70
2023/04/02 04:06:45;;;;;;;3.78;3.15;;;;;;;;;;4209733;34;20077;-69
2023/04/02 04:09:30;;;;;;;3.53;2.90;;;;;;;;;;4210286;34;20534;-69
2023/04/02 04:12:19;;;;;;;3.78;2.35;;;;;;;;;;4208039;34;20039;-72
2023/04/02 04:14:58;;;;;;;2.20;2.10;;;;;;;;;;4196634;34;20039;-69
2023/04/02 04:17:55;;;;;;;2.35;1.83;;;;;;;;;;4176816;34;20055;-72
2023/04/02 04:20:24;;;;;;;2.95;2.42;;;;;;;;;;4140845;34;20041;-69
2023/04/02 04:22:54;;;;;;;3.08;2.12;;;;;;;;;;4152766;34;20064;-70
2023/04/02 04:25:24;;;;;;;1.40;1.33;;;;;;;;;;4154371;34;20471;-69
2023/04/02 04:28:11;;;;;;;3.78;2.50;;;;;;;;;;4155641;34;20116;-69
2023/04/02 04:30:46;;;;;;;2.95;2.62;;;;;;;;;;4154964;34;20462;-71
2023/04/02 04:33:24;;;;;;;3.80;3.35;;;;;;;;;;4154538;34;20088;-70
2023/04/02 04:35:56;;;;;;;3.50;2.08;;;;;;;;;;4153660;34;20052;-70
2023/04/02 04:38:38;;;;;;;1.50;1.40;;;;;;;;;;4155350;34;20065;-72
2023/04/02 04:41:04;;;;;;;2.15;1.95;;;;;;;;;;4168260;34;21104;-70
2023/04/02 04:43:46;;;;;;;3.85;3.20;;;;;;;;;;4157202;34;20103;-70
2023/04/02 04:46:22;;;;;;;3.37;3.08;;;;;;;;;;4153599;34;20066;-70
2023/04/02 04:48:55;;;;;;;2.35;2.17;;;;;;;;;;4149642;34;20784;-69
2023/04/02 04:51:24;;;;;;;4.53;2.78;;;;;;;;;;4140040;34;20053;-69
2023/04/02 04:53:52;;;;;;;2.87;2.67;;;;;;;;;;4141258;34;20053;-70
2023/04/02 04:56:21;;;;;;;3.12;2.83;;;;;;;;;;4107861;34;20265;-70
2023/04/02 04:58:51;;;;;;;2.58;2.30;;;;;;;;;;4117426;34;20081;-70
2023/04/02 05:01:20;;;;;;;2.72;2.50;;;;;;;;;;4113771;34;20057;-70
2023/04/02 05:04:08;;;;;;;2.50;2.30;;;;;;;;;;4114465;34;20457;-70
2023/04/02 05:06:53;;;;;;;4.37;2.50;;;;;;;;;;4114236;34;20066;-70
2023/04/02 05:09:32;;;;;;;2.37;1.80;;;;;;;;;;4114090;34;20586;-70
2023/04/02 05:12:06;;;;;;;1.77;1.67;;;;;;;;;;4140247;34;20253;-69
2023/04/02 05:14:33;;;;;;;1.02;1.00;;;;;;;;;;4135181;34;20447;-69
2023/04/02 05:17:03;;;;;;;2.70;2.50;;;;;;;;;;4140281;34;20120;-70
2023/04/02 05:19:41;;;;;;;1.60;1.45;;;;;;;;;;4151813;34;20045;-70
2023/04/02 05:22:33;;;;;;;1.67;1.33;;;;;;;;;;4156998;34;20177;-70
2023/04/02 05:25:10;;;;;;;0.88;0.88;;;;;;;;;;4179995;34;20052;-69
2023/04/02 05:27:40;;;;;;;3.90;1.75;;;;;;;;;;4180483;34;20451;-70
2023/04/02 05:30:10;;;;;;;2.97;1.87;;;;;;;;;;4166897;34;20049;-70
2023/04/02 05:32:41;;;;;;;1.77;1.67;;;;;;;;;;4158647;34;20330;-70
2023/04/02 05:35:13;;;;;;;2.70;2.33;;;;;;;;;;4153763;34;20074;-69
2023/04/02 05:37:40;;;;;;;2.53;2.35;;;;;;;;;;4146645;34;20044;-69
2023/04/02 05:40:27;;;;;;;0.85;0.85;;;;;;;;;;4139696;34;20048;-69
2023/04/02 05:42:55;;;;;;;3.03;2.78;;;;;;;;;;4119740;34;20048;-68
2023/04/02 05:45:26;;;;;;;2.45;2.25;;;;;;;;;;4154709;34;20048;-67
2023/04/02 05:48:00;;;;;;;3.60;3.05;;;;;;;;;;4139146;34;20349;-68
2023/04/02 05:50:36;;;;;;;3.78;3.12;;;;;;;;;;4144764;34;20048;-68
2023/04/02 05:53:07;;;;;;;6.57;2.53;;;;;;;;;;4156026;34;20055;-68
2023/04/02 05:55:37;;;;;;;3.80;3.50;;;;;;;;;;4156678;34;20055;-68
2023/04/02 05:58:06;;;;;;;3.42;3.05;;;;;;;;;;4171620;34;20370;-69
2023/04/02 06:00:36;;;;;;;5.80;4.45;;;;;;;;;;4194911;34;20058;-68
2023/04/02 06:03:06;;;;;;;3.37;2.87;;;;;;;;;;4193548;34;20081;-69
2023/04/02 06:05:38;;;;;;;5.43;4.85;;;;;;;;;;4182070;34;20500;-66
2023/04/02 06:08:08;;;;;;;7.35;5.57;;;;;;;;;;4186726;34;20047;-65
2023/04/02 06:10:36;;;;;;;5.10;4.60;;;;;;;;;;4195069;34;20134;-66
2023/04/02 06:13:05;;;;;;;4.53;3.50;;;;;;;;;;4204762;34;20200;-66
2023/04/02 06:15:32;;;;;;;4.35;3.97;;;;;;;;;;4199300;34;20831;-66
2023/04/02 06:18:04;;;;;;;3.92;3.50;;;;;;;;;;4199025;34;20040;-69
2023/04/02 06:20:32;;;;;;;4.40;3.97;;;;;;;;;;4180539;34;20087;-66
2023/04/02 06:23:10;;;;;;;4.03;2.90;;;;;;;;;;4180036;34;20060;-66
2023/04/02 06:25:41;;;;;;;2.45;2.25;;;;;;;;;;4166301;34;20054;-69
2023/04/02 06:28:12;;;;;;;3.15;2.85;;;;;;;;;;4165754;34;20603;-67
2023/04/02 06:30:48;;;;;;;5.12;3.65;;;;;;;;;;4183937;34;20112;-67
2023/04/02 06:33:15;;;;;;;5.28;3.60;;;;;;;;;;4194507;34;20032;-67
2023/04/02 06:35:45;;;;;;;4.72;4.12;;;;;;;;;;4191813;34;20065;-69
2023/04/02 06:38:24;;;;;;;1.62;1.58;;;;;;;;;;4195104;34;20077;-67
2023/04/02 06:40:58;;;;;;;5.22;4.43;;;;;;;;;;4208981;34;20067;-67
2023/04/02 06:43:32;;;;;;;4.50;3.72;;;;;;;;;;4207060;34;20061;-68
2023/04/02 06:46:01;;;;;;;5.85;4.20;;;;;;;;;;4208913;34;20051;-67
2023/04/02 06:48:28;;;;;;;4.05;3.70;;;;;;;;;;4180334;34;20110;-67
2023/04/02 06:50:58;;;;;;;5.15;4.65;;;;;;;;;;4152674;34;20116;-67
2023/04/02 06:53:26;;;;;;;3.50;3.10;;;;;;;;;;4164310;34;20111;-70
2023/04/02 06:56:14;;;;;;;3.75;3.28;;;;;;;;;;4169512;34;20075;-66
2023/04/02 06:58:40;;;;;;;4.45;3.97;;;;;;;;;;4176465;34;20044;-67
2023/04/02 07:01:07;;;;;;;3.60;3.15;;;;;;;;;;4182420;34;20044;-68
2023/04/02 07:03:34;;;;;;;4.65;3.62;;;;;;;;;;4189181;34;20212;-66
2023/04/02 07:06:02;;;;;;;3.70;3.42;;;;;;;;;;4188504;34;20184;-66
2023/04/02 07:08:28;;;;;;;3.37;2.95;;;;;;;;;;4190073;34;20044;-66
2023/04/02 07:10:55;;;;;;;5.72;4.10;;;;;;;;;;4189486;34;20055;-66
2023/04/02 07:13:22;;;;;;;6.15;4.20;;;;;;;;;;4177859;34;20423;-69
2023/04/02 07:15:51;;;;;;;3.33;3.05;;;;;;;;;;4163595;34;20074;-66
2023/04/02 07:18:21;;;;;;;5.18;3.42;;;;;;;;;;4166808;34;20070;-67
2023/04/02 07:20:48;;;;;;;3.35;3.03;;;;;;;;;;4184010;34;20105;-66
2023/04/02 07:23:15;;;;;;;1.87;1.58;;;;;;;;;;4216737;34;20046;-71
2023/04/02 07:25:42;;;;;;;2.45;2.25;;;;;;;;;;4220893;34;20043;-70
2023/04/02 07:28:09;;;;;;;3.28;2.95;;;;;;;;;;4213627;34;20046;-70
2023/04/02 07:30:35;;;;;;;3.47;3.17;;;;;;;;;;4196135;34;20073;-69
2023/04/02 07:33:01;;;;;;;2.53;2.40;;;;;;;;;;4203222;34;20039;-69
2023/04/02 07:35:28;;;;;;;3.10;2.50;;;;;;;;;;4204232;34;20217;-71
2023/04/02 07:37:57;;;;;;;3.78;3.25;;;;;;;;;;4205534;34;20032;-69
2023/04/02 07:40:24;;;;;;;3.55;3.25;;;;;;;;;;4207014;34;20077;-69
2023/04/02 07:42:51;;;;;;;1.98;1.87;;;;;;;;;;4205506;34;20059;-69
2023/04/02 07:45:17;;;;;;;4.05;3.65;;;;;;;;;;4206166;34;20552;-70
2023/04/02 07:47:43;;;;;;;6.03;4.32;;;;;;;;;;4204045;34;20065;-71
2023/04/02 07:50:10;;;;;;;2.85;2.65;;;;;;;;;;4205831;34;20051;-70
2023/04/02 07:52:41;;;;;;;3.12;2.92;;;;;;;;;;4219461;34;20093;-70
2023/04/02 07:55:08;;;;;;;1.73;1.55;;;;;;;;;;4219834;34;20059;-70
2023/04/02 07:57:40;;;;;;;3.70;3.28;;;;;;;;;;4218661;34;20046;-70
2023/04/02 08:00:08;;;;;;;4.07;3.40;;;;;;;;;;4211202;34;20327;-69
2023/04/02 08:02:38;;;;;;;1.98;1.87;;;;;;;;;;4234792;33;20094;-69
2023/04/02 08:05:05;;;;;;;6.68;3.53;;;;;;;;;;4236580;33;20050;-70
2023/04/02 08:07:32;;;;;;;3.33;2.62;;;;;;;;;;4236358;33;20059;-69
2023/04/02 08:09:58;;;;;;;4.57;2.97;;;;;;;;;;4234588;33;20460;-70
2023/04/02 08:12:25;;;;;;;3.67;3.37;;;;;;;;;;4230556;33;20058;-69
2023/04/02 08:14:57;;;;;;;6.25;3.55;;;;;;;;;;4202024;34;20043;-69
2023/04/02 08:17:23;;;;;;;3.97;3.35;;;;;;;;;;4206164;34;20073;-72
2023/04/02 08:19:50;;;;;;;5.57;4.20;;;;;;;;;;4176398;34;20409;-73
2023/04/02 08:22:17;;;;;;;4.37;3.55;;;;;;;;;;4179268;34;20073;-70
2023/04/02 08:24:43;;;;;;;3.42;3.12;;;;;;;;;;4179232;34;20082;-70
2023/04/02 08:27:13;;;;;;;4.75;3.72;;;;;;;;;;4176031;34;20066;-69
2023/04/02 08:29:39;;;;;;;2.30;1.67;;;;;;;;;;4169415;34;20055;-73
2023/04/02 08:32:06;;;;;;;4.78;3.92;;;;;;;;;;4172259;34;20048;-70
2023/04/02 08:34:33;;;;;;;4.28;3.87;;;;;;;;;;4172658;34;20082;-70
2023/04/02 08:36:59;;;;;;;2.50;2.37;;;;;;;;;;4171998;34;20572;-70
2023/04/02 08:39:28;;;;;;;4.47;4.07;;;;;;;;;;4178298;34;20051;-70
2023/04/02 08:42:15;;;;;;;3.85;2.70;;;;;;;;;;4176619;34;20867;-70
2023/04/02 08:44:52;;;;;;;4.12;3.72;;;;;;;;;;4156199;34;20066;-68
2023/04/02 08:47:19;;;;;;;6.40;3.42;;;;;;;;;;4193671;34;20207;-69
2023/04/02 08:49:50;;;;;;;2.30;2.20;;;;;;;;;;4193527;34;20348;-69
2023/04/02 08:52:19;;;;;;;4.50;4.12;;;;;;;;;;4194779;34;20418;-68
2023/04/02 08:54:46;;;;;;;4.60;3.00;;;;;;;;;;4194903;34;20401;-70
2023/04/02 08:57:20;;;;;;;2.78;2.58;;;;;;;;;;4221707;33;20135;-69
2023/04/02 08:59:47;;;;;;;4.15;3.75;;;;;;;;;;4215945;33;20075;-70
2023/04/02 09:02:21;;;;;;;11.02;5.53;;;;;;;;;;4222523;33;20043;-69
2023/04/02 09:04:48;;;;;;;3.87;3.58;;;;;;;;;;4223158;33;20069;-69
2023/04/02 09:07:15;;;;;;;4.15;2.40;;;;;;;;;;4221743;33;20442;-72
2023/04/02 09:09:42;;;;;;;4.45;3.30;;;;;;;;;;4222210;33;20485;-70
2023/04/02 09:12:19;;;;;;;14.55;6.07;;;;;;;;;;4208703;34;20035;-69
2023/04/02 09:14:57;;;;;;;11.73;5.80;;;;;;;;;;4202214;34;20056;-69
2023/04/02 09:17:25;;;;;;;7.80;4.40;;;;;;;;;;4209586;33;20055;-70
2023/04/02 09:19:51;;;;;;;12.37;5.25;;;;;;;;;;4211250;34;20078;-68
2023/04/02 09:22:19;;;;;;;7.03;4.12;;;;;;;;;;4211803;33;20048;-70
2023/04/02 09:24:56;;;;;;;10.70;6.57;;;;;;;;;;4210594;34;20031;-69
2023/04/02 09:27:29;;;;;;;8.98;5.05;;;;;;;;;;4199113;34;20473;-70
2023/04/02 09:30:12;;;;;;;13.82;5.37;;;;;;;;;;4219686;33;20064;-69
2023/04/02 09:32:41;;;;;;;4.43;3.47;;;;;;;;;;4201913;34;20221;-68
2023/04/02 09:35:11;;;;;;;3.12;2.75;;;;;;;;;;4197951;34;20069;-69
2023/04/02 09:37:39;;;;;;;4.37;3.17;;;;;;;;;;4166195;34;20052;-69
2023/04/02 09:40:15;;;;;;;3.22;3.00;;;;;;;;;;4163682;34;20083;-68
2023/04/02 09:42:42;;;;;;;3.85;3.12;;;;;;;;;;4161281;34;20066;-72
2023/04/02 09:45:21;;;;;;;2.58;2.30;;;;;;;;;;4168496;34;20090;-69
2023/04/02 09:47:48;;;;;;;2.58;2.37;;;;;;;;;;4173042;34;20246;-71
2023/04/02 09:52:53;;;;;;;1.33;1.23;;;;;;;;;;4191276;34;20429;-70
2023/04/02 09:55:23;;;;;;;4.40;2.87;;;;;;;;;;4192633;34;20051;-69
2023/04/02 09:57:49;;;;;;;4.43;3.55;;;;;;;;;;4190254;34;20056;-69
2023/04/02 10:00:18;;;;;;;6.07;4.07;;;;;;;;;;4189315;34;20048;-70
2023/04/02 10:02:45;;;;;;;2.67;2.50;;;;;;;;;;4190037;34;20087;-70
2023/04/02 10:05:22;;;;;;;2.83;2.22;;;;;;;;;;4189595;34;20044;-70
2023/04/02 10:07:51;;;;;;;3.30;2.90;;;;;;;;;;4191830;34;20094;-70
2023/04/02 10:10:36;;;;;;;2.60;2.37;;;;;;;;;;4202458;34;20090;-71
2023/04/02 10:13:03;;;;;;;6.97;3.45;;;;;;;;;;4204097;34;20066;-70
2023/04/02 10:15:32;;;;;;;3.22;2.95;;;;;;;;;;4183855;34;20093;-70
2023/04/02 10:18:02;;;;;;;0.98;0.98;;;;;;;;;;4185487;34;20411;-71
2023/04/02 10:20:31;;;;;;;1.80;1.70;;;;;;;;;;4184226;34;20075;-69
2023/04/02 10:22:57;;;;;;;2.97;2.45;;;;;;;;;;4187059;34;20050;-70
2023/04/02 10:25:26;;;;;;;3.25;2.90;;;;;;;;;;4201237;34;20083;-71
2023/04/02 10:27:58;;;;;;;5.40;4.00;;;;;;;;;;4193742;34;20069;-72
2023/04/02 10:30:30;;;;;;;8.93;4.75;;;;;;;;;;4190920;34;20545;-71
2023/04/02 10:33:03;;;;;;;2.40;2.28;;;;;;;;;;4189928;34;20051;-71
2023/04/02 10:35:29;;;;;;;1.87;1.77;;;;;;;;;;4206610;34;20095;-71
2023/04/02 10:38:00;;;;;;;3.08;2.50;;;;;;;;;;4208199;34;20099;-72
2023/04/02 10:40:28;;;;;;;2.87;2.67;;;;;;;;;;4227078;33;20080;-70
2023/04/02 10:43:13;;;;;;;3.50;3.20;;;;;;;;;;4227606;33;20050;-70
2023/04/02 10:45:53;;;;;;;3.47;2.72;;;;;;;;;;4219092;33;20047;-71
2023/04/02 10:48:27;;;;;;;2.47;2.28;;;;;;;;;;4226204;33;20447;-70
2023/04/02 10:50:56;;;;;;;2.15;1.70;;;;;;;;;;4231777;33;20043;-70
2023/04/02 10:53:30;;;;;;;3.67;3.10;;;;;;;;;;4229984;33;20404;-70
2023/04/02 10:55:57;;;;;;;3.03;2.62;;;;;;;;;;4227144;33;20129;-70
2023/04/02 10:58:25;;;;;;;2.12;2.03;;;;;;;;;;4231337;33;20080;-70
2023/04/02 11:03:43;;;;;;;2.60;2.40;;;;;;;;;;4189324;34;20256;-72
2023/04/02 11:06:14;;;;;;;4.35;3.08;;;;;;;;;;4210895;34;20061;-70
2023/04/02 11:08:42;;;;;;;10.90;4.30;;;;;;;;;;4217131;34;20433;-69
2023/04/02 11:11:12;;;;;;;21.73;6.65;;;;;;;;;;4210017;33;20091;-72
2023/04/02 11:13:57;;;;;;;6.25;2.92;;;;;;;;;;4202191;34;20101;-70
2023/04/02 11:16:23;;;;;;;4.47;2.92;;;;;;;;;;4212370;34;20080;-70
2023/04/02 11:19:07;;;;;;;10.80;3.12;;;;;;;;;;4208702;34;20047;-69
2023/04/02 11:21:38;;;;;;;8.85;3.95;;;;;;;;;;4196531;34;20124;-70
2023/04/02 11:24:05;;;;;;;2.70;2.50;;;;;;;;;;4185778;34;20136;-69
2023/04/02 11:26:37;;;;;;;4.80;2.90;;;;;;;;;;4188972;34;20200;-69
2023/04/02 11:29:26;;;;;;;10.98;5.65;;;;;;;;;;4185631;34;20059;-69
2023/04/02 11:32:11;;;;;;;5.70;3.83;;;;;;;;;;4184286;34;20092;-69
2023/04/02 11:34:40;;;;;;;6.90;3.58;;;;;;;;;;4177357;34;20538;-69
2023/04/02 11:37:31;;;;;;;10.50;3.58;;;;;;;;;;4177367;34;20116;-69
2023/04/02 11:39:58;;;;;;;2.95;2.75;;;;;;;;;;4177597;34;20044;-72
2023/04/02 11:42:28;;;;;;;6.12;3.30;;;;;;;;;;4180215;34;20077;-70
2023/04/02 11:44:56;;;;;;;2.42;2.12;;;;;;;;;;4177027;34;20044;-70
2023/04/02 11:47:23;;;;;;;1.83;1.73;;;;;;;;;;4204415;34;20472;-70
2023/04/02 11:49:53;;;;;;;3.12;2.53;;;;;;;;;;4196950;34;20125;-71
2023/04/02 11:52:22;;;;;;;2.12;1.92;;;;;;;;;;4195788;34;20225;-70
2023/04/02 11:55:18;;;;;;;5.07;2.58;;;;;;;;;;4209566;33;20081;-70
2023/04/02 11:57:56;;;;;;;4.40;3.00;;;;;;;;;;4204658;33;20031;-70
2023/04/02 12:00:23;;;;;;;4.62;3.40;;;;;;;;;;4220464;33;20086;-70
2023/04/02 12:03:03;;;;;;;2.37;2.17;;;;;;;;;;4230790;33;20466;-70
2023/04/02 12:05:38;;;;;;;6.15;3.37;;;;;;;;;;4203942;34;20095;-71
2023/04/02 12:08:22;;;;;;;3.92;3.08;;;;;;;;;;4210970;34;20035;-72
2023/04/02 12:10:59;;;;;;;5.37;3.15;;;;;;;;;;4205690;34;20067;-72
2023/04/02 12:13:40;;;;;;;5.53;2.35;;;;;;;;;;4198645;34;20073;-72
2023/04/02 12:16:08;;;;;;;1.10;1.10;;;;;;;;;;4202715;34;20579;-70
2023/04/02 12:18:34;;;;;;;3.42;2.37;;;;;;;;;;4198948;34;20442;-71
2023/04/02 12:21:01;;;;;;;3.83;2.80;;;;;;;;;;4185179;34;20875;-70
2023/04/02 12:23:30;;;;;;;2.40;2.17;;;;;;;;;;4180557;34;20048;-69
2023/04/02 12:26:07;;;;;;;3.80;2.45;;;;;;;;;;4185781;34;20047;-69
2023/04/02 12:28:36;;;;;;;4.65;3.10;;;;;;;;;;4191142;34;20051;-69
2023/04/02 12:31:08;;;;;;;3.95;2.95;;;;;;;;;;4192713;34;20407;-70
2023/04/02 12:33:38;;;;;;;3.17;2.25;;;;;;;;;;4193112;34;20039;-70
2023/04/02 12:36:08;;;;;;;1.80;1.70;;;;;;;;;;4188860;34;20609;-68
2023/04/02 12:38:42;;;;;;;4.15;2.15;;;;;;;;;;4178077;34;20094;-68
2023/04/02 12:41:20;;;;;;;6.40;3.17;;;;;;;;;;4193251;34;20043;-70
2023/04/02 12:43:46;;;;;;;4.03;2.25;;;;;;;;;;4220982;33;20607;-70
2023/04/02 12:46:13;;;;;;;7.65;2.45;;;;;;;;;;4219435;34;20056;-69
2023/04/02 12:48:39;;;;;;;4.25;2.47;;;;;;;;;;4221673;34;20469;-70
2023/04/02 12:51:06;;;;;;;9.35;4.75;;;;;;;;;;4222906;34;20090;-69
2023/04/02 12:53:34;;;;;;;4.10;2.35;;;;;;;;;;4207269;34;20104;-69
2023/04/02 12:56:01;;;;;;;4.12;2.80;;;;;;;;;;4206783;34;20059;-69
2023/04/02 12:58:36;;;;;;;2.37;2.17;;;;;;;;;;4190991;34;20093;-69
2023/04/02 13:01:13;;;;;;;2.67;2.47;;;;;;;;;;4218006;34;20142;-69
2023/04/02 13:03:39;;;;;;;2.37;1.77;;;;;;;;;;4221728;34;20078;-68
2023/04/02 13:06:22;;;;;;;1.55;1.45;;;;;;;;;;4207202;34;20097;-72
2023/04/02 13:08:49;;;;;;;4.12;2.75;;;;;;;;;;4213319;34;20061;-69
2023/04/02 13:11:16;;;;;;;2.50;2.10;;;;;;;;;;4207558;34;20170;-71
2023/04/02 13:13:42;;;;;;;6.78;3.55;;;;;;;;;;4203891;34;20591;-71
2023/04/02 13:16:09;;;;;;;2.80;2.30;;;;;;;;;;4196823;34;20110;-70
2023/04/02 13:18:36;;;;;;;5.57;2.70;;;;;;;;;;4202572;34;20092;-69
2023/04/02 13:21:04;;;;;;;8.00;2.75;;;;;;;;;;4222051;34;20065;-70
2023/04/02 13:23:30;;;;;;;2.53;2.22;;;;;;;;;;4207574;34;20039;-70
2023/04/02 13:26:01;;;;;;;5.68;2.42;;;;;;;;;;4205866;34;20090;-71
2023/04/02 13:28:27;;;;;;;3.67;2.58;;;;;;;;;;4208495;34;20043;-69
2023/04/02 13:30:54;;;;;;;2.92;2.70;;;;;;;;;;4207103;34;20051;-69
2023/04/02 13:33:20;;;;;;;2.90;2.60;;;;;;;;;;4219758;33;20043;-70
2023/04/02 13:35:47;;;;;;;2.22;2.05;;;;;;;;;;4219503;34;20063;-71
2023/04/02 13:38:12;;;;;;;2.37;2.17;;;;;;;;;;4221670;34;20091;-68
2023/04/02 13:40:40;;;;;;;1.25;1.25;;;;;;;;;;4198853;34;20134;-70
2023/04/02 13:43:06;;;;;;;3.40;2.53;;;;;;;;;;4205592;34;20122;-70
2023/04/02 13:45:35;;;;;;;3.12;2.25;;;;;;;;;;4208389;34;20389;-69
2023/04/02 13:48:02;;;;;;;3.12;2.90;;;;;;;;;;4210789;34;20086;-70
2023/04/02 13:50:29;;;;;;;3.92;3.45;;;;;;;;;;4219818;34;20104;-69
2023/04/02 13:52:57;;;;;;;3.55;2.70;;;;;;;;;;4208711;34;20116;-70
2023/04/02 13:55:26;;;;;;;2.87;2.58;;;;;;;;;;4211300;34;20059;-70
2023/04/02 13:57:59;;;;;;;4.47;3.55;;;;;;;;;;4220083;34;20047;-70
2023/04/02 14:00:25;;;;;;;4.93;2.60;;;;;;;;;;4215448;34;20426;-70
2023/04/02 14:02:54;;;;;;;2.60;2.10;;;;;;;;;;4205972;34;20055;-69
2023/04/02 14:05:39;;;;;;;2.75;2.55;;;;;;;;;;4207009;34;20077;-68
2023/04/02 14:08:07;;;;;;;4.93;2.05;;;;;;;;;;4206476;34;20043;-68
2023/04/02 14:10:53;;;;;;;5.90;3.60;;;;;;;;;;4206365;34;20102;-69
2023/04/02 14:13:29;;;;;;;3.05;2.20;;;;;;;;;;4234837;33;20043;-71
2023/04/02 14:16:03;;;;;;;2.05;1.92;;;;;;;;;;4235059;33;20070;-71
2023/04/02 14:18:29;;;;;;;2.47;2.12;;;;;;;;;;4236143;33;20054;-69
2023/04/02 14:21:04;;;;;;;1.42;1.42;;;;;;;;;;4237773;33;20042;-69
2023/04/02 14:23:42;;;;;;;3.22;2.20;;;;;;;;;;4218066;33;20039;-68
2023/04/02 14:26:15;;;;;;;3.47;1.87;;;;;;;;;;4232385;33;20089;-68
2023/04/02 14:28:48;;;;;;;2.00;1.90;;;;;;;;;;4204037;34;20728;-68
2023/04/02 14:31:17;;;;;;;1.27;1.27;;;;;;;;;;4195793;34;20477;-67
2023/04/02 14:33:49;;;;;;;1.55;1.45;;;;;;;;;;4167841;34;20356;-69
2023/04/02 14:36:20;;;;;;;2.17;1.48;;;;;;;;;;4165692;34;20048;-69
2023/04/02 14:38:47;;;;;;;1.23;1.17;;;;;;;;;;4165050;34;20102;-73
2023/04/02 14:41:17;;;;;;;3.10;1.50;;;;;;;;;;4157971;34;20863;-68
2023/04/02 14:44:01;;;;;;;2.90;1.62;;;;;;;;;;4151912;34;20082;-69
2023/04/02 14:46:29;;;;;;;2.85;1.52;;;;;;;;;;4152119;34;20893;-70
2023/04/02 14:48:57;;;;;;;1.42;1.33;;;;;;;;;;4159570;34;20041;-68
2023/04/02 14:51:28;;;;;;;1.98;1.08;;;;;;;;;;4152116;34;20060;-68
2023/04/02 14:53:58;;;;;;;1.55;1.45;;;;;;;;;;4154233;34;20382;-70
2023/04/02 14:56:25;;;;;;;4.05;2.90;;;;;;;;;;4174235;34;20103;-68
2023/04/02 14:59:01;;;;;;;2.90;2.30;;;;;;;;;;4164498;34;20183;-68
2023/04/02 15:01:34;;;;;;;3.20;1.45;;;;;;;;;;4207474;34;20211;-68
2023/04/02 15:04:01;;;;;;;4.18;1.98;;;;;;;;;;4202898;34;20084;-68
2023/04/02 15:06:41;;;;;;;2.55;2.35;;;;;;;;;;4203397;34;20072;-71
2023/04/02 15:09:14;;;;;;;1.85;1.75;;;;;;;;;;4207875;34;20087;-70
2023/04/02 15:11:43;;;;;;;2.40;2.17;;;;;;;;;;4206207;34;20484;-68
2023/04/02 15:14:34;;;;;;;1.57;1.47;;;;;;;;;;4204311;34;20043;-71
2023/04/02 15:17:00;;;;;;;2.45;1.87;;;;;;;;;;4200626;34;20048;-67
2023/04/02 15:19:26;;;;;;;0.77;0.77;;;;;;;;;;4215117;33;20126;-67
2023/04/02 15:21:55;;;;;;;1.70;1.58;;;;;;;;;;4214165;33;20080;-68
2023/04/02 15:24:43;;;;;;;2.03;1.33;;;;;;;;;;4215329;33;20047;-67
2023/04/02 15:27:18;;;;;;;3.72;2.17;;;;;;;;;;4206608;34;20039;-68
2023/04/02 15:30:01;;;;;;;6.20;2.45;;;;;;;;;;4200444;34;20367;-68
2023/04/02 15:32:30;;;;;;;9.55;3.00;;;;;;;;;;4187168;34;20056;-69
2023/04/02 15:35:03;;;;;;;8.43;3.75;;;;;;;;;;4166210;34;20179;-71
2023/04/02 15:37:48;;;;;;;3.10;1.62;;;;;;;;;;4176964;34;20188;-69
2023/04/02 15:40:14;;;;;;;3.12;2.17;;;;;;;;;;4193146;34;20141;-68
2023/04/02 15:42:44;;;;;;;5.90;3.53;;;;;;;;;;4188889;34;20044;-66
2023/04/02 15:45:10;;;;;;;3.83;2.75;;;;;;;;;;4192105;34;20045;-66
2023/04/02 15:47:51;;;;;;;2.28;1.67;;;;;;;;;;4185229;34;20059;-69
2023/04/02 15:50:19;;;;;;;4.22;2.25;;;;;;;;;;4185508;34;20442;-68
2023/04/02 15:52:51;;;;;;;4.72;3.20;;;;;;;;;;4190886;34;20115;-68
2023/04/02 15:55:32;;;;;;;6.97;3.53;;;;;;;;;;4211341;33;20064;-69
2023/04/02 15:58:16;;;;;;;5.37;3.27;;;;;;;;;;4224187;33;20068;-69
2023/04/02 16:00:48;;;;;;;3.20;2.28;;;;;;;;;;4221525;33;20191;-69
2023/04/02 16:03:33;;;;;;;4.45;2.87;;;;;;;;;;4244071;33;20054;-69
2023/04/02 16:05:59;;;;;;;3.92;2.80;;;;;;;;;;4240331;33;20485;-71
2023/04/02 16:08:25;;;;;;;3.72;2.70;;;;;;;;;;4232857;33;20909;-69
2023/04/02 16:10:51;;;;;;;5.28;3.05;;;;;;;;;;4230952;33;20088;-69
2023/04/02 16:13:24;;;;;;;4.18;2.90;;;;;;;;;;4227625;33;20058;-69
2023/04/02 16:16:05;;;;;;;5.62;2.30;;;;;;;;;;4222066;34;20080;-68
2023/04/02 16:18:43;;;;;;;5.78;2.55;;;;;;;;;;4225354;33;20124;-68
2023/04/02 16:21:13;;;;;;;3.00;2.50;;;;;;;;;;4227174;34;20096;-69
2023/04/02 16:23:40;;;;;;;8.70;3.47;;;;;;;;;;4233822;33;20035;-69
2023/04/02 16:26:20;;;;;;;9.38;4.15;;;;;;;;;;4226626;34;20054;-68
2023/04/02 16:29:01;;;;;;;8.93;4.12;;;;;;;;;;4223878;33;20434;-69
2023/04/02 16:31:49;;;;;;;8.77;4.97;;;;;;;;;;4220075;33;20114;-71
2023/04/02 16:34:34;;;;;;;9.88;5.18;;;;;;;;;;4223766;33;20101;-69
2023/04/02 16:37:04;;;;;;;7.05;3.83;;;;;;;;;;4216481;33;20027;-70
2023/04/02 16:39:44;;;;;;;10.25;4.95;;;;;;;;;;4225075;33;20093;-69
2023/04/02 16:42:36;;;;;;;3.00;2.47;;;;;;;;;;4208310;34;20065;-69
2023/04/02 16:45:02;;;;;;;;;;;;;;;;;;4187211;34;20073;-69
2023/04/02 16:47:34;;;;;;;13.30;7.28;;;;;;;;;;4214836;33;20283;-69
2023/04/02 16:50:00;;;;;;;;;;;;;;;;;;4222426;33;20055;-69
2023/04/02 16:52:35;;;;;;;12.15;6.68;;;;;;;;;;4226892;33;19941;-69
2023/04/02 16:55:11;;;;;;;14.13;6.82;;;;;;;;;;4196554;34;20397;-68
2023/04/02 16:57:47;;;;;;;14.00;7.37;;;;;;;;;;4208695;34;20064;-69
2023/04/02 17:00:22;;;;;;;14.23;7.57;;;;;;;;;;4196712;34;20116;-71
2023/04/02 17:02:54;;;;;;;9.60;5.78;;;;;;;;;;4193670;34;20234;-68
2023/04/02 17:05:28;;;;;;;12.77;6.18;;;;;;;;;;4191037;34;20155;-68
2023/04/02 17:08:03;;;;;;;6.25;4.18;;;;;;;;;;4190598;34;20040;-69
2023/04/02 17:10:30;;;;;;;14.55;7.97;;;;;;;;;;4193123;34;20043;-68
2023/04/02 17:13:11;;;;;;;12.73;6.75;;;;;;;;;;4199906;34;20051;-68
2023/04/02 17:15:38;;;;;;;13.23;6.50;;;;;;;;;;4201731;34;20466;-68
2023/04/02 17:18:25;;;;;;;12.70;6.68;;;;;;;;;;4206204;34;20119;-70